Time;durP1;ratioP1;P1;durP2;ratioP2;P2;SDS_P1;SDS_P2;PMS_P1;PMS_P2;Temp;Humidity;BMP_temperature;BMP_pressure;BME280_temperature;BME280_humidity;BME280_pressure;Samples;Min_cycle;Max_cycle;Signal;HPM_P1;HPM_P2
2022/07/21 00:02:01;;;;;;;;;;;;;;;20.19;100.00;-4367.88;4997030;28;20012;-81
2022/07/21 00:04:26;;;;;;;;;;;;;;;20.16;100.00;-7032.56;4997215;28;19914;-80
2022/07/21 00:06:52;;;;;;;;;;;;;;;20.23;100.00;-9362.69;4997031;28;20281;-80
2022/07/21 00:09:17;;;;;;;;;;;;;;;20.34;100.00;-10361.38;4996778;28;19913;-79
2022/07/21 00:11:43;;;;;;;;;;;;;;;20.15;100.00;-11025.84;4997337;28;20362;-81
2022/07/21 00:14:21;;;;;;;;;;;;;;;20.25;100.00;-13021.75;5013945;28;19914;-81
2022/07/21 00:16:46;;;;;;;;;;;;;;;20.20;100.00;-15015.56;4996739;28;19917;-81
2022/07/21 00:19:12;;;;;;;;;;;;;;;20.23;100.00;-16012.69;5014465;28;19936;-79
2022/07/21 00:21:37;;;;;;;;;;;;;;;20.25;100.00;-17009.41;4996961;28;19920;-81
2022/07/21 00:24:11;;;;;;;;;;;;;;;20.21;100.00;-18005.09;4996370;28;19914;-81
2022/07/21 00:26:36;;;;;;;;;;;;;;;20.23;100.00;-19333.25;4996068;28;19923;-80
2022/07/21 00:29:01;;;;;;;;;;;;;;;20.21;100.00;-20328.56;4994823;28;19913;-79
2022/07/21 00:31:26;;;;;;;;;;;;;;;20.15;100.00;-21322.47;5014209;28;19913;-81
2022/07/21 00:34:07;;;;;;;;;;;;;;;20.14;100.00;-22980.38;5014055;28;19914;-80
2022/07/21 00:36:32;;;;;;;;;;;;;;;20.09;100.00;-24636.56;5013834;28;19913;-81
2022/07/21 00:38:57;;;;;;;;;;;;;;;20.19;100.00;-25633.31;4996457;28;20332;-80
2022/07/21 00:41:22;;;;;;;;;;;;;;;20.19;100.00;-25635.25;4996414;28;19919;-79
2022/07/21 00:43:49;;;;;;;;;;;;;;;20.15;100.00;-25634.09;5013900;28;19952;-78
2022/07/21 00:46:14;;;;;;;;;;;;;;;20.10;100.00;-25632.81;4996542;28;19917;-78
2022/07/21 00:48:39;;;;;;;;;;;;;;;20.16;100.00;-25634.41;4996680;28;19921;-80
2022/07/21 00:51:05;;;;;;;;;;;;;;;20.17;100.00;-25634.69;4996195;28;19921;-78
2022/07/21 00:53:32;;;;;;;;;;;;;;;20.14;100.00;-25633.97;4996438;28;19993;-78
2022/07/21 00:55:59;;;;;;;;;;;;;;;20.10;100.00;-25632.81;4996316;28;19925;-78
2022/07/21 00:58:24;;;;;;;;;;;;;;;20.12;100.00;-25633.38;4998457;28;20337;-78
2022/07/21 01:00:49;;;;;;;;;;;;;;;20.09;100.00;-25632.66;5003096;28;19920;-79
2022/07/21 01:03:23;;;;;;;;;;;;;;;20.08;100.00;-25632.22;5002235;28;20277;-79
2022/07/21 01:05:48;;;;;;;;;;;;;;;20.09;100.00;-25632.66;5003030;28;19909;-81
2022/07/21 01:08:14;;;;;;;;;;;;;;;20.06;100.00;-25631.81;5020104;28;19924;-80
2022/07/21 01:10:39;;;;;;;;;;;;;;;20.07;100.00;-25632.09;5002747;28;19937;-81
2022/07/21 01:13:08;;;;;;;;;;;;;;;20.04;100.00;-25631.06;5002572;28;19928;-80
2022/07/21 01:15:34;;;;;;;;;;;;;;;20.03;100.00;-25630.94;5003023;28;19914;-78
2022/07/21 01:18:00;;;;;;;;;;;;;;;19.99;100.00;-25629.78;5019699;28;19972;-79
2022/07/21 01:20:25;;;;;;;;;;;;;;;20.00;100.00;-25629.94;5002921;28;19983;-78
2022/07/21 01:22:53;;;;;;;;;;;;;;;19.95;100.00;-25628.63;5020174;28;19936;-80
2022/07/21 01:25:19;;;;;;;;;;;;;;;20.02;100.00;-25630.50;5019861;28;20405;-81
2022/07/21 01:27:45;;;;;;;;;;;;;;;20.04;100.00;-25631.22;5002875;28;19913;-80
2022/07/21 01:30:10;;;;;;;;;;;;;;;20.00;100.00;-25630.06;5019892;28;19914;-79
2022/07/21 01:32:37;;;;;;;;;;;;;;;20.01;100.00;-25630.34;5019978;28;19914;-81
2022/07/21 01:35:04;;;;;;;;;;;;;;;20.03;100.00;-25630.94;5002239;28;19971;-81
2022/07/21 01:37:31;;;;;;;;;;;;;;;19.98;100.00;-25629.50;5019914;28;20000;-79
2022/07/21 01:42:42;;;;;;;;;;;;;;;19.88;100.00;-25626.75;5020667;28;19959;-81
2022/07/21 01:45:07;;;;;;;;;;;;;;;19.87;100.00;-25626.31;5002002;28;19913;-80
2022/07/21 01:47:33;;;;;;;;;;;;;;;19.82;100.00;-25624.88;5002357;28;19919;-81
2022/07/21 01:49:59;;;;;;;;;;;;;;;19.84;100.00;-25625.44;5019764;28;20114;-81
2022/07/21 01:52:24;;;;;;;;;;;;;;;19.83;100.00;-25625.31;5019897;28;19913;-80
2022/07/21 01:54:50;;;;;;;;;;;;;;;19.79;100.00;-25624.00;5002649;28;19913;-80
2022/07/21 01:57:15;;;;;;;;;;;;;;;19.73;100.00;-25622.41;5001550;28;19914;-81
2022/07/21 01:59:40;;;;;;;;;;;;;;;19.77;100.00;-25623.44;5017383;28;19920;-79
2022/07/21 02:02:06;;;;;;;;;;;;;;;19.80;100.00;-25624.31;5002038;28;20259;-79
2022/07/21 02:04:34;;;;;;;;;;;;;;;19.79;100.00;-25624.16;5002523;28;20586;-80
2022/07/21 02:06:59;;;;;;;;;;;;;;;19.76;100.00;-25623.28;5002083;28;20020;-80
2022/07/21 02:09:25;;;;;;;;;;;;;;;19.67;100.00;-25620.84;5001997;28;19984;-81
2022/07/21 02:11:56;;;;;;;;;;;;;;;19.67;100.00;-25620.69;5016004;28;19985;-79
2022/07/21 02:14:32;;;;;;;;;;;;;;;19.65;100.00;-25620.25;4999032;28;19914;-80
2022/07/21 02:16:57;;;;;;;;;;;;;;;19.61;100.00;-25618.94;4998633;28;19925;-81
2022/07/21 02:19:23;;;;;;;;;;;;;;;19.61;100.00;-25618.94;4998866;28;19913;-80
2022/07/21 02:21:48;;;;;;;;;;;;;;;19.61;100.00;-25619.09;5016795;28;19914;-80
2022/07/21 02:24:13;;;;;;;;;;;;;;;19.62;100.00;-25619.25;4998721;28;19928;-80
2022/07/21 02:26:38;;;;;;;;;;;;;;;19.66;100.00;-25620.41;4998918;28;19917;-80
2022/07/21 02:29:03;;;;;;;;;;;;;;;19.69;100.00;-25621.41;4998476;28;19914;-81
2022/07/21 02:31:29;;;;;;;;;;;;;;;19.68;100.00;-25621.13;4998926;28;19918;-79
2022/07/21 02:33:54;;;;;;;;;;;;;;;19.74;100.00;-25622.84;4998752;28;19913;-80
2022/07/21 02:36:19;;;;;;;;;;;;;;;19.67;100.00;-25620.84;4999053;28;19917;-80
2022/07/21 02:38:45;;;;;;;;;;;;;;;19.61;100.00;-25619.09;4998878;28;19964;-80
2022/07/21 02:41:10;;;;;;;;;;;;;;;19.60;100.00;-25618.81;4998158;28;19944;-81
2022/07/21 02:43:37;;;;;;;;;;;;;;;19.68;100.00;-25620.97;4998553;28;19914;-82
2022/07/21 02:46:02;;;;;;;;;;;;;;;19.62;100.00;-25619.38;4999121;28;19918;-82
2022/07/21 02:48:28;;;;;;;;;;;;;;;19.66;100.00;-25620.41;4998492;28;19910;-81
2022/07/21 02:50:53;;;;;;;;;;;;;;;19.67;100.00;-25620.84;4998558;28;19914;-80
2022/07/21 02:53:31;;;;;;;;;;;;;;;19.68;100.00;-25620.97;5015741;28;19919;-81
2022/07/21 02:55:56;;;;;;;;;;;;;;;19.66;100.00;-25620.41;5015515;28;19913;-82
2022/07/21 02:58:27;;;;;;;;;;;;;;;19.68;100.00;-25621.13;4998349;28;19951;-80
2022/07/21 03:00:56;;;;;;;;;;;;;;;19.60;100.00;-25618.81;4998297;28;20401;-79
2022/07/21 03:03:31;;;;;;;;;;;;;;;19.65;100.00;-25620.09;5015627;28;19920;-81
2022/07/21 03:05:56;;;;;;;;;;;;;;;19.63;100.00;-25619.69;4998158;28;19913;-81
2022/07/21 03:08:22;;;;;;;;;;;;;;;19.63;100.00;-25619.53;4997947;28;19944;-81
2022/07/21 03:10:48;;;;;;;;;;;;;;;19.65;100.00;-25620.25;4998090;28;19913;-80
2022/07/21 03:13:15;;;;;;;;;;;;;;;19.62;100.00;-25619.38;5015384;28;19917;-78
2022/07/21 03:15:41;;;;;;;;;;;;;;;19.52;100.00;-25616.50;4998342;28;19971;-80
2022/07/21 03:18:06;;;;;;;;;;;;;;;19.56;100.00;-25617.66;4998152;28;19917;-81
2022/07/21 03:20:33;;;;;;;;;;;;;;;19.64;100.00;-25619.81;5016058;28;19920;-81
2022/07/21 03:22:58;;;;;;;;;;;;;;;19.56;100.00;-25617.66;4997740;28;19913;-81
2022/07/21 03:25:24;;;;;;;;;;;;;;;19.51;100.00;-25616.38;5001178;28;19913;-81
2022/07/21 03:27:50;;;;;;;;;;;;;;;19.45;100.00;-25614.47;4999090;28;19917;-80
2022/07/21 03:30:16;;;;;;;;;;;;;;;19.46;100.00;-25614.78;5001094;28;20614;-80
2022/07/21 03:32:43;;;;;;;;;;;;;;;19.46;100.00;-25614.78;5003722;28;19913;-79
2022/07/21 03:35:10;;;;;;;;;;;;;;;19.41;100.00;-25613.47;4997055;28;19914;-80
2022/07/21 03:38:04;;;;;;;;;;;;;;;19.46;100.00;-25614.91;5017622;28;19913;-78
2022/07/21 03:40:31;;;;;;;;;;;;;;;19.43;100.00;-25614.03;5006064;28;20219;-80
2022/07/21 03:43:01;;;;;;;;;;;;;;;19.50;100.00;-25615.94;5004747;28;19984;-80
2022/07/21 03:45:29;;;;;;;;;;;;;;;19.54;100.00;-25617.22;4998200;28;19909;-80
2022/07/21 03:47:55;;;;;;;;;;;;;;;19.43;100.00;-25613.91;4996534;28;19917;-80
2022/07/21 03:50:20;;;;;;;;;;;;;;;19.55;100.00;-25617.38;4997159;28;19910;-79
2022/07/21 03:52:48;;;;;;;;;;;;;;;19.54;100.00;-25617.22;4997249;28;19971;-81
2022/07/21 03:55:17;;;;;;;;;;;;;;;19.63;100.00;-25619.69;4997106;28;19918;-80
2022/07/21 03:57:46;;;;;;;;;;;;;;;19.53;100.00;-25616.78;4997506;28;19913;-81
2022/07/21 04:00:13;;;;;;;;;;;;;;;19.53;100.00;-25616.78;4997526;28;19968;-79
2022/07/21 04:02:44;;;;;;;;;;;;;;;19.57;100.00;-25617.94;4997305;28;19920;-82
2022/07/21 04:05:10;;;;;;;;;;;;;;;19.48;100.00;-25615.50;4996894;28;20007;-80
2022/07/21 04:07:35;;;;;;;;;;;;;;;19.50;100.00;-25616.06;4996984;28;19917;-79
2022/07/21 04:10:01;;;;;;;;;;;;;;;19.46;100.00;-25614.78;4996892;28;19913;-79
2022/07/21 04:12:27;;;;;;;;;;;;;;;19.41;100.00;-25613.47;4997002;28;19952;-81
2022/07/21 04:14:52;;;;;;;;;;;;;;;19.42;100.00;-25613.75;4997052;28;19967;-81
2022/07/21 04:17:17;;;;;;;;;;;;;;;19.36;100.00;-25612.16;4996282;28;19925;-78
2022/07/21 04:19:43;;;;;;;;;;;;;;;19.32;100.00;-25610.88;4996782;28;19913;-77
2022/07/21 04:22:08;;;;;;;;;;;;;;;19.37;100.00;-25612.47;4996676;28;19914;-81
2022/07/21 04:24:44;;;;;;;;;;;;;;;19.40;100.00;-25613.03;5014165;28;20527;-80
2022/07/21 04:27:09;;;;;;;;;;;;;;;19.38;100.00;-25612.75;5012402;28;20278;-81
2022/07/21 04:29:34;;;;;;;;;;;;;;;19.44;100.00;-25614.34;4997069;28;19920;-81
2022/07/21 04:32:00;;;;;;;;;;;;;;;19.41;100.00;-25613.47;4996794;28;20380;-81
2022/07/21 04:34:27;;;;;;;;;;;;;;;19.48;100.00;-25615.50;4979141;28;19924;-80
2022/07/21 04:36:52;;;;;;;;;;;;;;;19.49;100.00;-25615.63;4995960;28;19914;-78
2022/07/21 04:39:17;;;;;;;;;;;;;;;19.48;100.00;-25615.34;4994304;28;19925;-79
2022/07/21 04:41:42;;;;;;;;;;;;;;;19.50;100.00;-25615.94;4995425;28;19940;-78
2022/07/21 04:44:08;;;;;;;;;;;;;;;19.52;100.00;-25616.66;4995874;28;19920;-79
2022/07/21 04:46:33;;;;;;;;;;;;;;;19.57;100.00;-25617.94;4995882;28;19913;-80
2022/07/21 04:48:58;;;;;;;;;;;;;;;19.50;100.00;-25615.94;4995727;28;19917;-80
2022/07/21 04:51:23;;;;;;;;;;;;;;;19.51;100.00;-25616.38;4996226;28;19920;-77
2022/07/21 04:53:56;;;;;;;;;;;;;;;19.50;100.00;-25616.06;4996230;28;19940;-78
2022/07/21 04:56:21;;;;;;;;;;;;;;;19.49;100.00;-25615.78;4996291;28;19913;-79
2022/07/21 04:58:46;;;;;;;;;;;;;;;19.51;100.00;-25616.38;4995967;28;20008;-80
2022/07/21 05:01:11;;;;;;;;;;;;;;;19.55;100.00;-25617.50;4995533;28;19968;-80
2022/07/21 05:03:39;;;;;;;;;;;;;;;19.57;100.00;-25617.81;4995863;28;19936;-80
2022/07/21 05:06:04;;;;;;;;;;;;;;;19.53;100.00;-25616.78;4996104;28;19914;-80
2022/07/21 05:08:29;;;;;;;;;;;;;;;19.50;100.00;-25615.94;4996063;28;19983;-79
2022/07/21 05:10:54;;;;;;;;;;;;;;;19.46;100.00;-25614.78;4995182;28;19944;-78
2022/07/21 05:13:21;;;;;;;;;;;;;;;19.42;100.00;-25613.63;4996630;28;20008;-80
2022/07/21 05:15:46;;;;;;;;;;;;;;;19.43;100.00;-25614.03;4993711;28;20436;-80
2022/07/21 05:18:11;;;;;;;;;;;;;;;19.44;100.00;-25614.19;4995312;28;19921;-78
2022/07/21 05:20:37;;;;;;;;;;;;;;;19.45;100.00;-25614.47;4995729;28;19913;-80
2022/07/21 05:23:03;;;;;;;;;;;;;;;19.46;100.00;-25614.78;4996098;28;19914;-79
2022/07/21 05:25:28;;;;;;;;;;;;;;;19.37;100.00;-25612.47;4996101;28;19917;-79
2022/07/21 05:27:54;;;;;;;;;;;;;;;19.37;100.00;-25612.31;4995859;28;20044;-79
2022/07/21 05:30:19;;;;;;;;;;;;;;;19.31;100.00;-25610.72;5013469;28;19980;-78
2022/07/21 05:32:46;;;;;;;;;;;;;;;19.29;100.00;-25610.16;5012878;28;19920;-77
2022/07/21 05:35:12;;;;;;;;;;;;;;;19.24;100.00;-25608.56;4995765;28;19914;-79
2022/07/21 05:37:38;;;;;;;;;;;;;;;19.26;100.00;-25609.28;4995717;28;20384;-80
2022/07/21 05:40:03;;;;;;;;;;;;;;;19.38;100.00;-25612.59;4995822;28;20292;-80
2022/07/21 05:42:30;;;;;;;;;;;;;;;19.44;100.00;-25614.34;4996004;28;19917;-79
2022/07/21 05:44:56;;;;;;;;;;;;;;;19.51;100.00;-25616.22;4997166;28;20334;-81
2022/07/21 05:47:21;;;;;;;;;;;;;;;19.54;100.00;-25617.06;4999713;28;19913;-79
2022/07/21 05:49:46;;;;;;;;;;;;;;;19.55;100.00;-25617.50;4999579;28;19914;-80
2022/07/21 05:52:12;;;;;;;;;;;;;;;19.43;100.00;-25614.03;4999385;28;20329;-81
2022/07/21 05:54:42;;;;;;;;;;;;;;;19.36;100.00;-25612.03;4999396;28;19913;-80
2022/07/21 05:57:07;;;;;;;;;;;;;;;19.43;100.00;-25613.91;5016398;28;19959;-81
2022/07/21 05:59:33;;;;;;;;;;;;;;;19.38;100.00;-25612.75;4999300;28;19909;-79
2022/07/21 06:01:58;;;;;;;;;;;;;;;19.47;100.00;-25615.06;4998932;28;19921;-78
2022/07/21 06:04:28;;;;;;;;;;;;;;;19.50;100.00;-25615.94;4999112;28;19920;-80
2022/07/21 06:06:53;;;;;;;;;;;;;;;19.59;100.00;-25618.53;5015574;28;19920;-79
2022/07/21 06:09:19;;;;;;;;;;;;;;;19.50;100.00;-25615.94;4998780;28;19913;-81
2022/07/21 06:11:44;;;;;;;;;;;;;;;19.44;100.00;-25614.34;4999240;28;19913;-81
2022/07/21 06:14:10;;;;;;;;;;;;;;;19.44;100.00;-25614.19;4998505;28;19928;-80
2022/07/21 06:16:35;;;;;;;;;;;;;;;19.40;100.00;-25613.19;4999060;28;19963;-81
2022/07/21 06:19:01;;;;;;;;;;;;;;;19.33;100.00;-25611.16;4998670;28;19918;-80
2022/07/21 06:21:27;;;;;;;;;;;;;;;19.27;100.00;-25609.44;4999092;28;19913;-81
2022/07/21 06:23:53;;;;;;;;;;;;;;;19.17;100.00;-25606.69;4998539;28;19913;-80
2022/07/21 06:26:18;;;;;;;;;;;;;;;18.99;100.00;-25601.63;4997660;28;19917;-82
2022/07/21 06:28:44;;;;;;;;;;;;;;;19.11;100.00;-25604.94;4998042;28;19936;-81
2022/07/21 06:31:09;;;;;;;;;;;;;;;19.08;100.00;-25604.09;5015064;28;19918;-82
2022/07/21 06:33:34;;;;;;;;;;;;;;;18.97;100.00;-25601.19;4996832;28;20270;-82
2022/07/21 06:36:00;;;;;;;;;;;;;;;18.82;100.00;-25596.84;4996946;28;19914;-82
2022/07/21 06:38:26;;;;;;;;;;;;;;;18.82;100.00;-25597.00;5014976;28;20015;-81
2022/07/21 06:40:51;;;;;;;;;;;;;;;18.85;100.00;-25597.72;4996462;28;20021;-83
2022/07/21 06:43:17;;;;;;;;;;;;;;;18.75;100.00;-25594.81;4996862;28;19920;-80
2022/07/21 06:45:43;;;;;;;;;;;;;;;18.73;100.00;-25594.25;4997581;28;19920;-81
2022/07/21 06:48:08;;;;;;;;;;;;;;;18.70;100.00;-25593.53;4997253;28;19914;-79
2022/07/21 06:50:34;;;;;;;;;;;;;;;18.70;100.00;-25593.38;4997085;28;20340;-79
2022/07/21 06:52:59;;;;;;;;;;;;;;;18.70;100.00;-25593.38;4996496;28;20310;-81
2022/07/21 06:55:25;;;;;;;;;;;;;;;18.69;100.00;-25593.09;4996547;28;19992;-80
2022/07/21 06:57:51;;;;;;;;;;;;;;;18.75;100.00;-25594.81;4996768;28;20008;-82
2022/07/21 07:00:17;;;;;;;;;;;;;;;18.74;100.00;-25594.53;4997426;28;20000;-82
2022/07/21 07:02:42;;;;;;;;;;;;;;;18.79;100.00;-25596.00;4996753;28;19960;-82
2022/07/21 07:05:07;;;;;;;;;;;;;;;18.83;100.00;-25597.28;4997468;28;19928;-81
2022/07/21 07:07:33;;;;;;;;;;;;;;;18.77;100.00;-25595.41;4996770;28;19916;-84
2022/07/21 07:09:59;;;;;;;;;;;;;;;18.68;100.00;-25592.81;4980879;28;19917;-84
2022/07/21 07:12:24;;;;;;;;;;;;;;;18.55;100.00;-25589.34;4997325;28;20028;-84
2022/07/21 07:14:49;;;;;;;;;;;;;;;18.55;100.00;-25589.34;4997852;28;19917;-77
2022/07/21 07:17:16;;;;;;;;;;;;;;;18.50;100.00;-25587.88;4995455;28;20389;-79
2022/07/21 07:19:41;;;;;;;;;;;;;;;18.55;100.00;-25589.19;4995278;28;19967;-76
2022/07/21 07:22:06;;;;;;;;;;;;;;;18.61;100.00;-25590.94;4994626;28;19913;-74
2022/07/21 07:24:32;;;;;;;;;;;;;;;18.62;100.00;-25591.22;4994516;28;19986;-75
2022/07/21 07:26:57;;;;;;;;;;;;;;;18.61;100.00;-25591.06;4994721;28;19920;-75
2022/07/21 07:29:22;;;;;;;;;;;;;;;18.58;100.00;-25590.22;4994566;28;19917;-75
2022/07/21 07:31:47;;;;;;;;;;;;;;;18.50;100.00;-25587.88;4994884;28;20007;-75
2022/07/21 07:34:13;;;;;;;;;;;;;;;18.56;100.00;-25589.63;4994399;28;20401;-75
2022/07/21 07:36:38;;;;;;;;;;;;;;;18.41;100.00;-25585.28;4994829;28;19913;-77
2022/07/21 07:39:04;;;;;;;;;;;;;;;18.38;100.00;-25584.41;4994251;28;19921;-78
2022/07/21 07:41:31;;;;;;;;;;;;;;;18.28;100.00;-25581.81;4994878;28;19922;-76
2022/07/21 07:43:58;;;;;;;;;;;;;;;18.37;100.00;-25584.28;4994224;28;20009;-77
2022/07/21 07:46:23;;;;;;;;;;;;;;;18.41;100.00;-25585.28;4994908;28;19910;-78
2022/07/21 07:48:48;;;;;;;;;;;;;;;18.43;100.00;-25586.00;4995216;28;19914;-77
2022/07/21 07:51:14;;;;;;;;;;;;;;;18.32;100.00;-25582.81;4994206;28;19913;-75
2022/07/21 07:53:40;;;;;;;;;;;;;;;18.16;100.00;-25578.19;4994411;28;19922;-76
2022/07/21 07:56:06;;;;;;;;;;;;;;;18.27;100.00;-25581.53;4994783;28;19913;-76
2022/07/21 07:58:32;;;;;;;;;;;;;;;18.15;100.00;-25578.06;4994460;28;20444;-74
2022/07/21 08:00:57;;;;;;;;;;;;;;;18.18;100.00;-25578.91;4995112;28;20044;-76
2022/07/21 08:03:23;;;;;;;;;;;;;;;18.18;100.00;-25578.78;4994437;28;19914;-76
2022/07/21 08:05:49;;;;;;;;;;;;;;;18.19;99.27;-25579.06;4995262;28;19913;-78
2022/07/21 08:08:15;;;;;;;;;;;;;;;18.13;96.06;-25577.47;4994078;28;19917;-76
2022/07/21 08:10:40;;;;;;;;;;;;;;;18.11;91.62;-25577.03;4994118;28;20393;-76
2022/07/21 08:13:08;;;;;;;;;;;;;;;18.12;87.42;-25577.19;4993689;28;20282;-76
2022/07/21 08:15:33;;;;;;;;;;;;;;;18.15;85.12;-25578.06;4994876;28;20059;-77
2022/07/21 08:17:59;;;;;;;;;;;;;;;18.24;81.54;-25580.66;5010826;28;20424;-77
2022/07/21 08:20:24;;;;;;;;;;;;;;;18.35;81.30;-25583.53;4993969;28;20381;-78
2022/07/21 08:22:51;;;;;;;;;;;;;;;18.36;79.63;-25583.84;4994111;28;19918;-76
2022/07/21 08:25:16;;;;;;;;;;;;;;;18.47;78.90;-25587.03;4994029;28;20020;-79
2022/07/21 08:27:42;;;;;;;;;;;;;;;18.58;81.85;-25590.22;4995081;28;20052;-80
2022/07/21 08:30:07;;;;;;;;;;;;;;;18.65;89.61;-25592.22;4996506;28;20234;-81
2022/07/21 08:32:34;;;;;;;;;;;;;;;18.69;100.00;-25593.25;4995126;28;19914;-82
2022/07/21 08:34:59;;;;;;;;;;;;;;;18.87;100.00;-25598.31;4996044;28;19917;-80
2022/07/21 08:37:25;;;;;;;;;;;;;;;18.78;100.00;-25595.84;4978577;28;20377;-76
2022/07/21 08:39:50;;;;;;;;;;;;;;;18.77;100.00;-25595.41;4995243;28;19960;-82
2022/07/21 08:42:15;;;;;;;;;;;;;;;18.73;100.00;-25594.25;4995604;28;20038;-81
2022/07/21 08:44:41;;;;;;;;;;;;;;;18.61;100.00;-25591.06;4996942;28;20373;-76
2022/07/21 08:47:06;;;;;;;;;;;;;;;18.60;100.00;-25590.63;4998042;28;19917;-81
2022/07/21 08:49:35;;;;;;;;;;;;;;;18.62;100.00;-25591.22;4997764;28;20397;-82
2022/07/21 08:52:01;;;;;;;;;;;;;;;18.60;100.00;-25590.78;4991120;28;19914;-81
2022/07/21 08:54:26;;;;;;;;;;;;;;;18.38;100.00;-25584.56;4996155;28;20321;-82
2022/07/21 08:56:51;;;;;;;;;;;;;;;18.06;100.00;-25575.59;4996927;28;19913;-76
2022/07/21 08:59:16;;;;;;;;;;;;;;;18.22;100.00;-25580.06;4995853;28;20366;-77
2022/07/21 09:01:42;;;;;;;;;;;;;;;18.16;100.00;-25578.34;4992738;28;20008;-78
2022/07/21 09:04:20;;;;;;;;;;;;;;;18.06;100.00;-25575.44;4993325;28;20333;-77
2022/07/21 09:06:51;;;;;;;;;;;;;;;18.19;100.00;-25579.06;4993954;28;20309;-77
2022/07/21 09:09:23;;;;;;;;;;;;;;;18.22;100.00;-25580.06;4993838;28;19956;-75
2022/07/21 09:11:48;;;;;;;;;;;;;;;18.21;100.00;-25579.63;4994315;28;19917;-76
2022/07/21 09:14:19;;;;;;;;;;;;;;;18.23;100.00;-25580.22;4992819;28;20164;-76
2022/07/21 09:16:49;;;;;;;;;;;;;;;18.29;100.00;-25582.09;4993797;28;19925;-75
2022/07/21 09:19:25;;;;;;;;;;;;;;;18.26;100.00;-25581.09;4993874;28;19918;-76
2022/07/21 09:21:52;;;;;;;;;;;;;;;18.55;100.00;-25589.19;4997128;28;20008;-75
2022/07/21 09:24:18;;;;;;;;;;;;;;;18.63;100.00;-25591.66;4997840;28;19966;-76
2022/07/21 09:26:55;;;;;;;;;;;;;;;19.14;100.00;-25605.81;5014217;28;20359;-82
2022/07/21 09:29:21;;;;;;;;;;;;;;;19.18;100.00;-25607.13;5013596;28;19936;-76
2022/07/21 09:31:47;;;;;;;;;;;;;;;19.16;100.00;-25606.41;4997749;28;20277;-83
2022/07/21 09:34:14;;;;;;;;;;;;;;;18.91;100.00;-25599.31;4998137;28;19920;-79
2022/07/21 09:36:53;;;;;;;;;;;;;;;19.04;100.00;-25603.06;4998011;28;19925;-80
2022/07/21 09:39:19;;;;;;;;;;;;;;;18.91;100.00;-25599.47;4998089;28;19913;-81
2022/07/21 09:41:44;;;;;;;;;;;;;;;18.80;100.00;-25596.28;4998844;28;19913;-82
2022/07/21 09:44:09;;;;;;;;;;;;;;;18.71;100.00;-25593.69;4981665;28;19922;-84
2022/07/21 09:46:34;;;;;;;;;;;;;;;18.63;100.00;-25591.66;4999801;28;19914;-80
2022/07/21 09:49:01;;;;;;;;;;;;;;;18.39;100.00;-25584.72;4998429;28;20424;-81
2022/07/21 09:51:30;;;;;;;;;;;;;;;18.12;100.00;-25577.31;4999386;28;19914;-81
2022/07/21 09:54:03;;;;;;;;;;;;;;;18.15;100.00;-25577.91;5014292;28;19914;-76
2022/07/21 09:56:30;;;;;;;;;;;;;;;18.22;100.00;-25580.06;4997630;28;20293;-79
2022/07/21 09:58:56;;;;;;;;;;;;;;;18.35;100.00;-25583.53;4997119;28;19920;-80
2022/07/21 10:01:22;;;;;;;;;;;;;;;18.30;100.00;-25582.41;4998919;28;19913;-80
2022/07/21 10:03:49;;;;;;;;;;;;;;;18.34;100.00;-25583.25;4997582;28;20388;-78
2022/07/21 10:06:15;;;;;;;;;;;;;;;18.21;100.00;-25579.78;4998286;28;19917;-79
2022/07/21 10:08:42;;;;;;;;;;;;;;;18.11;100.00;-25577.03;4998607;28;19910;-81
2022/07/21 10:11:08;;;;;;;;;;;;;;;18.06;100.00;-25575.44;4982240;28;20008;-78
2022/07/21 10:13:33;;;;;;;;;;;;;;;18.20;100.00;-25579.34;5016237;28;20010;-83
2022/07/21 10:15:59;;;;;;;;;;;;;;;17.94;100.00;-25572.25;4999696;28;19917;-83
2022/07/21 10:18:26;;;;;;;;;;;;;;;17.99;100.00;-25573.56;5000689;28;19917;-81
2022/07/21 10:20:55;;;;;;;;;;;;;;;18.02;100.00;-25574.28;5018530;28;19959;-84
2022/07/21 10:23:43;;;;;;;;;;;;;;;17.99;100.00;-25573.56;5001135;28;19913;-80
2022/07/21 10:26:09;;;;;;;;;;;;;;;18.16;100.00;-25578.19;5016464;28;19910;-83
2022/07/21 10:28:35;;;;;;;;;;;;;;;18.15;92.33;-25578.06;5004043;28;20444;-79
2022/07/21 10:31:13;;;;;;;;;;;;;;;18.12;89.84;-25577.31;5001002;28;19956;-84
2022/07/21 10:33:44;;;;;;;;;;;;;;;18.11;85.90;-25576.91;5003305;28;19913;-85
2022/07/21 10:36:10;;;;;;;;;;;;;;;18.07;88.90;-25575.72;5020343;28;19993;-84
2022/07/21 10:38:36;;;;;;;;;;;;;;;18.17;90.72;-25578.50;5006466;28;19913;-83
2022/07/21 10:41:03;;;;;;;;;;;;;;;18.36;87.50;-25583.97;5002256;28;19920;-84
2022/07/21 10:43:29;;;;;;;;;;;;;;;18.43;89.59;-25585.88;4996569;28;19913;-79
2022/07/21 10:45:54;;;;;;;;;;;;;;;18.47;89.83;-25587.03;5013089;28;19920;-77
2022/07/21 10:48:39;;;;;;;;;;;;;;;18.23;97.63;-25580.38;4997510;28;19913;-77
2022/07/21 10:51:09;;;;;;;;;;;;;;;18.68;100.00;-25592.94;5012437;28;19917;-78
2022/07/21 10:53:36;;;;;;;;;;;;;;;18.80;100.00;-25596.28;4996137;28;19913;-78
2022/07/21 10:56:01;;;;;;;;;;;;;;;18.72;100.00;-25593.97;4996254;28;19913;-77
2022/07/21 10:58:28;;;;;;;;;;;;;;;18.69;100.00;-25593.09;4980417;28;19913;-80
2022/07/21 11:00:55;;;;;;;;;;;;;;;18.69;100.00;-25593.25;4996376;28;19996;-79
2022/07/21 11:03:20;;;;;;;;;;;;;;;18.57;100.00;-25589.78;4996118;28;20328;-78
2022/07/21 11:06:04;;;;;;;;;;;;;;;18.48;100.00;-25587.44;5012176;28;19921;-77
2022/07/21 11:08:30;;;;;;;;;;;;;;;18.58;100.00;-25590.06;5012500;28;19924;-78
2022/07/21 11:11:06;;;;;;;;;;;;;;;18.59;100.00;-25590.50;4996086;28;19917;-79
2022/07/21 11:13:51;;;;;;;;;;;;;;;18.78;100.00;-25595.69;4995552;28;19913;-78
2022/07/21 11:16:16;;;;;;;;;;;;;;;18.73;100.00;-25594.25;4995554;28;19957;-78
2022/07/21 11:18:42;;;;;;;;;;;;;;;18.83;100.00;-25597.13;4995894;28;19956;-78
2022/07/21 11:21:15;;;;;;;;;;;;;;;18.61;100.00;-25591.06;5012216;28;20348;-78
2022/07/21 11:23:42;;;;;;;;;;;;;;;18.75;100.00;-25594.81;4995695;28;19917;-77
2022/07/21 11:26:08;;;;;;;;;;;;;;;18.57;100.00;-25589.91;4995778;28;19948;-77
2022/07/21 11:28:33;;;;;;;;;;;;;;;18.55;100.00;-25589.34;4995707;28;20274;-79
2022/07/21 11:31:14;;;;;;;;;;;;;;;18.52;100.00;-25588.47;4994831;28;19909;-77
2022/07/21 11:33:42;;;;;;;;;;;;;;;18.48;100.00;-25587.31;4995515;28;19918;-77
2022/07/21 11:36:08;;;;;;;;;;;;;;;18.53;100.00;-25588.63;5013352;28;19945;-78
2022/07/21 11:38:34;;;;;;;;;;;;;;;18.50;100.00;-25587.75;4996031;28;20335;-78
2022/07/21 11:41:14;;;;;;;;;;;;;;;18.53;100.00;-25588.63;4996040;28;19940;-77
2022/07/21 11:43:44;;;;;;;;;;;;;;;18.48;100.00;-25587.31;5012608;28;19928;-77
2022/07/21 11:46:10;;;;;;;;;;;;;;;18.45;100.00;-25586.59;4996075;28;19979;-76
2022/07/21 11:48:35;;;;;;;;;;;;;;;18.53;100.00;-25588.75;4996609;28;20020;-83
2022/07/21 11:51:03;;;;;;;;;;;;;;;18.64;100.00;-25591.94;4995680;28;20013;-74
2022/07/21 11:53:32;;;;;;;;;;;;;;;18.54;100.00;-25589.03;5012832;28;20003;-83
2022/07/21 11:55:57;;;;;;;;;;;;;;;18.53;100.00;-25588.75;4994654;28;20298;-77
2022/07/21 11:58:22;;;;;;;;;;;;;;;18.54;100.00;-25588.91;4995510;28;19910;-77
2022/07/21 12:00:48;;;;;;;;;;;;;;;18.29;100.00;-25582.09;4995179;28;20316;-77
2022/07/21 12:03:15;;;;;;;;;;;;;;;18.11;100.00;-25576.91;4994386;28;20368;-77
2022/07/21 12:05:40;;;;;;;;;;;;;;;18.03;100.00;-25574.56;4994998;28;19962;-74
2022/07/21 12:08:06;;;;;;;;;;;;;;;17.97;100.00;-25572.84;4994727;28;20000;-79
2022/07/21 12:10:31;;;;;;;;;;;;;;;17.98;100.00;-25573.28;4994733;28;19920;-80
2022/07/21 12:13:01;;;;;;;;;;;;;;;18.01;100.00;-25574.00;4995089;28;19913;-81
2022/07/21 12:15:29;;;;;;;;;;;;;;;18.05;100.00;-25575.31;4995864;28;19913;-81
2022/07/21 12:17:56;;;;;;;;;;;;;;;18.14;100.00;-25577.63;4994621;28;19917;-79
2022/07/21 12:20:29;;;;;;;;;;;;;;;18.10;100.00;-25576.59;4996136;28;19960;-81
2022/07/21 12:22:57;;;;;;;;;;;;;;;18.27;100.00;-25581.53;4995509;28;19913;-81
2022/07/21 12:25:34;;;;;;;;;;;;;;;18.29;100.00;-25582.09;4979493;28;20361;-80
2022/07/21 12:28:01;;;;;;;;;;;;;;;18.25;100.00;-25580.94;4995890;28;19925;-82
2022/07/21 12:30:34;;;;;;;;;;;;;;;18.09;100.00;-25576.47;4995881;28;19917;-78